Time;durP1;ratioP1;P1;durP2;ratioP2;P2;SDS_P1;SDS_P2;PMS_P1;PMS_P2;Temp;Humidity;BMP_temperature;BMP_pressure;BME280_temperature;BME280_humidity;BME280_pressure;Samples;Min_cycle;Max_cycle;Signal;HPM_P1;HPM_P2
2024/02/05 00:00:06;;;;;;;1.05;0.60;;;;;;;;;;10228115;28;20051;-75
2024/02/05 00:05:13;;;;;;;0.30;0.30;;;;;;;;;;10233171;28;20055;-74
2024/02/05 00:10:18;;;;;;;1.15;0.75;;;;;;;;;;10232242;28;20044;-75
2024/02/05 00:15:21;;;;;;;1.50;0.80;;;;;;;;;;10232893;28;20044;-75
2024/02/05 00:20:25;;;;;;;1.40;1.00;;;;;;;;;;10236191;28;20047;-75
2024/02/05 00:25:29;;;;;;;2.00;1.42;;;;;;;;;;10227079;28;20388;-75
2024/02/05 00:30:32;;;;;;;0.82;0.70;;;;;;;;;;10234510;28;20059;-74
2024/02/05 00:35:36;;;;;;;0.73;0.55;;;;;;;;;;10232677;28;20139;-75
2024/02/05 00:40:41;;;;;;;0.40;0.40;;;;;;;;;;10231694;28;20150;-74
2024/02/05 00:45:44;;;;;;;0.45;0.45;;;;;;;;;;10237110;28;20134;-74
2024/02/05 00:50:47;;;;;;;0.30;0.20;;;;;;;;;;10231468;28;20051;-75
2024/02/05 00:55:52;;;;;;;0.80;0.30;;;;;;;;;;10231460;28;20051;-75
2024/02/05 01:00:55;;;;;;;0.20;0.20;;;;;;;;;;10233906;28;20756;-74
2024/02/05 01:05:58;;;;;;;0.35;0.30;;;;;;;;;;10233232;28;20090;-75
2024/02/05 01:11:03;;;;;;;1.10;0.40;;;;;;;;;;10232674;28;20062;-75
2024/02/05 01:16:07;;;;;;;1.67;0.38;;;;;;;;;;10226264;28;20061;-74
2024/02/05 01:21:10;;;;;;;0.45;0.35;;;;;;;;;;10231086;28;20226;-75
2024/02/05 01:26:15;;;;;;;1.38;0.32;;;;;;;;;;10222743;28;20070;-75
2024/02/05 01:31:18;;;;;;;0.77;0.35;;;;;;;;;;10229412;28;20050;-74
2024/02/05 01:36:22;;;;;;;0.40;0.40;;;;;;;;;;10229820;29;20071;-74
2024/02/05 01:41:26;;;;;;;0.88;0.40;;;;;;;;;;10231033;28;20047;-75
2024/02/05 01:46:32;;;;;;;0.25;0.25;;;;;;;;;;10239526;28;20137;-75
2024/02/05 01:51:43;;;;;;;0.73;0.30;;;;;;;;;;10241537;28;20085;-74
2024/02/05 01:56:49;;;;;;;0.85;0.40;;;;;;;;;;10233624;28;20511;-74
2024/02/05 02:01:53;;;;;;;0.77;0.40;;;;;;;;;;10238387;28;20422;-75
2024/02/05 02:06:56;;;;;;;0.40;0.40;;;;;;;;;;10236841;28;20063;-75
2024/02/05 02:12:02;;;;;;;1.77;0.50;;;;;;;;;;10232734;28;20482;-74
2024/02/05 02:17:06;;;;;;;1.60;0.43;;;;;;;;;;10236039;28;20053;-74
2024/02/05 02:22:20;;;;;;;0.75;0.68;;;;;;;;;;10239358;28;20047;-74
2024/02/05 02:27:24;;;;;;;1.63;0.75;;;;;;;;;;10228952;28;20105;-75
2024/02/05 02:32:40;;;;;;;0.68;0.55;;;;;;;;;;10235783;28;20518;-74
2024/02/05 02:37:49;;;;;;;1.75;0.60;;;;;;;;;;10233811;28;20138;-74
2024/02/05 02:43:00;;;;;;;2.78;0.70;;;;;;;;;;10234943;28;20138;-74
2024/02/05 02:48:04;;;;;;;1.60;0.70;;;;;;;;;;10241106;28;20294;-74
2024/02/05 02:53:07;;;;;;;1.58;0.57;;;;;;;;;;10239100;28;20059;-74
2024/02/05 02:58:12;;;;;;;1.02;0.60;;;;;;;;;;10224515;28;20048;-74
2024/02/05 03:03:15;;;;;;;3.33;0.68;;;;;;;;;;10236253;29;20043;-74
2024/02/05 03:08:19;;;;;;;1.58;0.70;;;;;;;;;;10239496;28;20138;-74
2024/02/05 03:13:24;;;;;;;3.63;0.95;;;;;;;;;;10234212;28;20130;-74
2024/02/05 03:18:28;;;;;;;2.20;0.70;;;;;;;;;;10234016;28;20070;-74
2024/02/05 03:23:31;;;;;;;1.38;0.70;;;;;;;;;;10233300;28;20051;-75
2024/02/05 03:28:36;;;;;;;4.00;0.60;;;;;;;;;;10231964;28;20059;-74
2024/02/05 03:33:39;;;;;;;1.10;0.70;;;;;;;;;;10235796;28;20114;-74
2024/02/05 03:38:42;;;;;;;0.93;0.70;;;;;;;;;;10230886;28;20130;-74
2024/02/05 03:43:48;;;;;;;2.17;0.95;;;;;;;;;;10235403;28;20051;-74
2024/02/05 03:48:51;;;;;;;3.60;0.80;;;;;;;;;;10236586;28;20048;-74
2024/02/05 03:53:55;;;;;;;2.97;0.82;;;;;;;;;;10234628;28;20078;-74
2024/02/05 03:59:00;;;;;;;3.13;1.08;;;;;;;;;;10230365;28;20051;-74
2024/02/05 04:04:03;;;;;;;2.53;1.10;;;;;;;;;;10227983;28;20048;-74
2024/02/05 04:09:08;;;;;;;5.25;0.90;;;;;;;;;;10229028;28;20051;-74
2024/02/05 04:14:13;;;;;;;1.63;0.90;;;;;;;;;;10224195;28;20051;-74
2024/02/05 04:19:17;;;;;;;1.77;0.85;;;;;;;;;;10228063;28;20056;-74
2024/02/05 04:24:20;;;;;;;5.75;1.17;;;;;;;;;;10227453;28;20450;-74
2024/02/05 04:29:27;;;;;;;5.57;1.02;;;;;;;;;;10231289;28;20055;-74
2024/02/05 04:34:31;;;;;;;3.28;1.05;;;;;;;;;;10243429;28;20047;-74
2024/02/05 04:39:34;;;;;;;6.55;1.30;;;;;;;;;;10232571;28;20063;-74
2024/02/05 04:44:38;;;;;;;4.07;1.35;;;;;;;;;;10237056;28;20532;-74
2024/02/05 04:49:43;;;;;;;3.65;0.85;;;;;;;;;;10230773;28;20062;-74
2024/02/05 04:54:46;;;;;;;3.35;1.00;;;;;;;;;;10225247;28;20673;-74
2024/02/05 04:59:51;;;;;;;3.08;0.90;;;;;;;;;;10235736;28;20138;-74
2024/02/05 05:04:54;;;;;;;5.07;1.30;;;;;;;;;;10223643;28;20039;-74
2024/02/05 05:09:58;;;;;;;1.77;1.02;;;;;;;;;;10249278;23;20139;-74
2024/02/05 05:15:03;;;;;;;6.07;1.65;;;;;;;;;;10232563;28;20065;-74
2024/02/05 05:20:07;;;;;;;8.35;1.80;;;;;;;;;;10208297;28;20079;-74
2024/02/05 05:25:10;;;;;;;3.45;1.52;;;;;;;;;;10196987;29;20062;-74
2024/02/05 05:30:16;;;;;;;4.38;1.45;;;;;;;;;;10197594;28;20084;-74
2024/02/05 05:35:20;;;;;;;4.72;1.50;;;;;;;;;;10199808;28;20070;-74
2024/02/05 05:40:23;;;;;;;5.45;1.63;;;;;;;;;;10196119;29;20056;-74
2024/02/05 05:45:29;;;;;;;4.95;1.40;;;;;;;;;;10199060;28;20106;-75
2024/02/05 05:50:33;;;;;;;;;;;;;;;;;;10193109;29;20153;-74
2024/02/05 05:55:36;;;;;;;7.35;1.85;;;;;;;;;;10196962;28;20021;-74
2024/02/05 06:00:41;;;;;;;5.78;1.70;;;;;;;;;;10197318;28;20043;-75
2024/02/05 06:05:45;;;;;;;9.18;2.30;;;;;;;;;;10197500;28;20044;-74
2024/02/05 06:10:48;;;;;;;9.93;2.30;;;;;;;;;;10194416;28;20044;-74
2024/02/05 06:15:53;;;;;;;7.80;2.58;;;;;;;;;;10195584;28;20048;-74
2024/02/05 06:20:56;;;;;;;9.85;2.78;;;;;;;;;;10196504;29;20274;-74
2024/02/05 06:26:00;;;;;;;11.77;2.88;;;;;;;;;;10197782;28;20047;-74
2024/02/05 06:31:05;;;;;;;11.02;2.83;;;;;;;;;;10202774;29;20056;-74
2024/02/05 06:36:09;;;;;;;9.52;2.70;;;;;;;;;;10208712;28;20044;-75
2024/02/05 06:41:12;;;;;;;20.20;3.10;;;;;;;;;;10193824;28;20057;-74
2024/02/05 06:46:17;;;;;;;9.35;3.03;;;;;;;;;;10201764;29;20139;-74
2024/02/05 06:51:20;;;;;;;14.25;2.95;;;;;;;;;;10194872;29;20516;-74
2024/02/05 06:56:23;;;;;;;12.90;3.35;;;;;;;;;;10200409;29;20551;-74
2024/02/05 07:01:28;;;;;;;14.65;3.55;;;;;;;;;;10204040;28;20053;-74
2024/02/05 07:06:31;;;;;;;8.60;2.60;;;;;;;;;;10200994;28;20047;-74
2024/02/05 07:11:34;;;;;;;13.10;3.38;;;;;;;;;;10194474;28;20048;-74
2024/02/05 07:16:39;;;;;;;11.35;3.13;;;;;;;;;;10194709;28;20051;-74
2024/02/05 07:21:42;;;;;;;8.05;2.40;;;;;;;;;;10197863;28;20067;-74
2024/02/05 07:26:45;;;;;;;8.80;3.10;;;;;;;;;;10197433;29;20122;-74
2024/02/05 07:31:50;;;;;;;10.02;2.63;;;;;;;;;;10196664;28;20074;-74
2024/02/05 07:36:53;;;;;;;7.88;2.45;;;;;;;;;;10201295;29;20062;-74
2024/02/05 07:41:57;;;;;;;10.23;2.63;;;;;;;;;;10199393;29;20802;-74
2024/02/05 07:47:02;;;;;;;7.80;2.75;;;;;;;;;;10200363;29;20052;-74
2024/02/05 07:52:06;;;;;;;9.48;3.13;;;;;;;;;;10198626;29;20052;-74
2024/02/05 07:57:09;;;;;;;9.98;3.10;;;;;;;;;;10199639;29;20537;-74
2024/02/05 08:02:14;;;;;;;9.57;2.83;;;;;;;;;;10197638;29;20057;-74
2024/02/05 08:07:17;;;;;;;6.75;2.67;;;;;;;;;;10201064;28;20112;-74
2024/02/05 08:12:20;;;;;;;8.43;2.45;;;;;;;;;;10196714;28;20660;-74
2024/02/05 08:17:25;;;;;;;9.93;3.20;;;;;;;;;;10190759;28;20044;-74
2024/02/05 08:22:30;;;;;;;8.18;2.78;;;;;;;;;;10193075;28;20135;-74
2024/02/05 08:27:34;;;;;;;7.70;2.77;;;;;;;;;;10192168;29;20083;-74
2024/02/05 08:32:38;;;;;;;7.22;2.28;;;;;;;;;;10191071;29;20111;-74
2024/02/05 08:37:42;;;;;;;7.03;2.67;;;;;;;;;;10197616;28;20050;-74
2024/02/05 08:42:45;;;;;;;11.95;3.38;;;;;;;;;;10195621;29;20205;-74
2024/02/05 08:47:49;;;;;;;11.85;3.60;;;;;;;;;;10197274;29;20044;-74
2024/02/05 08:52:53;;;;;;;16.25;3.92;;;;;;;;;;10197196;29;20534;-74
2024/02/05 08:57:56;;;;;;;8.07;2.85;;;;;;;;;;10196305;28;20674;-74
2024/02/05 09:03:02;;;;;;;9.00;2.72;;;;;;;;;;10196416;29;20044;-74
2024/02/05 09:08:07;;;;;;;8.98;3.20;;;;;;;;;;10196616;28;20052;-74
2024/02/05 09:13:10;;;;;;;7.63;2.53;;;;;;;;;;10196867;28;20054;-74
2024/02/05 09:18:14;;;;;;;7.80;2.35;;;;;;;;;;10193037;29;20772;-74
2024/02/05 09:23:18;;;;;;;7.15;2.85;;;;;;;;;;10182425;29;20052;-74
2024/02/05 09:28:23;;;;;;;11.32;3.67;;;;;;;;;;10193076;29;20680;-74
2024/02/05 09:33:28;;;;;;;9.63;3.00;;;;;;;;;;10193645;29;20131;-74
2024/02/05 09:38:31;;;;;;;12.27;2.72;;;;;;;;;;10185435;29;20054;-74
2024/02/05 09:43:34;;;;;;;8.65;2.92;;;;;;;;;;10195460;28;20056;-74
2024/02/05 09:48:42;;;;;;;5.80;2.40;;;;;;;;;;10185544;29;20099;-74
2024/02/05 09:53:47;;;;;;;7.47;2.85;;;;;;;;;;10189483;29;20534;-74
2024/02/05 09:58:50;;;;;;;11.68;2.67;;;;;;;;;;10185285;29;20048;-74
2024/02/05 10:03:56;;;;;;;7.57;2.53;;;;;;;;;;10197824;28;20047;-74
2024/02/05 10:09:04;;;;;;;6.28;2.47;;;;;;;;;;10199282;29;20060;-74
2024/02/05 10:14:07;;;;;;;11.13;2.75;;;;;;;;;;10200420;28;20039;-74
2024/02/05 10:19:11;;;;;;;10.95;2.50;;;;;;;;;;10198481;29;20094;-74
2024/02/05 10:24:17;;;;;;;7.93;2.40;;;;;;;;;;10193736;29;20056;-74
2024/02/05 10:29:22;;;;;;;12.32;2.85;;;;;;;;;;10195558;28;20042;-75
2024/02/05 10:34:27;;;;;;;10.52;2.45;;;;;;;;;;10195212;29;20048;-74
2024/02/05 10:39:30;;;;;;;8.13;2.97;;;;;;;;;;10200176;28;20134;-74
2024/02/05 10:44:33;;;;;;;5.93;2.67;;;;;;;;;;10198945;29;20074;-74
2024/02/05 10:49:40;;;;;;;12.23;3.42;;;;;;;;;;10215950;28;20048;-74
2024/02/05 10:54:45;;;;;;;8.93;2.67;;;;;;;;;;10194931;28;20043;-74
2024/02/05 10:59:48;;;;;;;8.18;2.50;;;;;;;;;;10200496;28;20074;-74
2024/02/05 11:04:55;;;;;;;8.30;2.17;;;;;;;;;;10198297;29;20075;-74
2024/02/05 11:10:02;;;;;;;9.30;2.95;;;;;;;;;;10194651;28;20056;-75
2024/02/05 11:15:08;;;;;;;8.57;2.40;;;;;;;;;;10214877;28;20051;-74
2024/02/05 11:20:14;;;;;;;9.48;2.75;;;;;;;;;;10210845;28;20071;-74
2024/02/05 11:25:18;;;;;;;11.43;2.97;;;;;;;;;;10200929;28;20048;-74
2024/02/05 11:30:22;;;;;;;11.40;2.70;;;;;;;;;;10196048;28;20048;-74
2024/02/05 11:35:29;;;;;;;10.02;3.00;;;;;;;;;;10230732;28;20059;-74
2024/02/05 11:40:33;;;;;;;10.10;2.72;;;;;;;;;;10197428;29;20055;-74
2024/02/05 11:45:37;;;;;;;8.55;3.05;;;;;;;;;;10197023;28;20050;-74
2024/02/05 11:50:42;;;;;;;11.75;2.97;;;;;;;;;;10199308;28;20665;-74
2024/02/05 11:55:46;;;;;;;9.48;2.78;;;;;;;;;;10197586;28;20055;-74
2024/02/05 12:00:49;;;;;;;4.20;2.17;;;;;;;;;;10200871;28;20059;-74
2024/02/05 12:05:54;;;;;;;8.32;2.78;;;;;;;;;;10199293;28;20054;-74
2024/02/05 12:10:58;;;;;;;8.88;2.92;;;;;;;;;;10198050;28;20059;-74
2024/02/05 12:16:11;;;;;;;8.02;2.80;;;;;;;;;;10197083;28;20439;-74
2024/02/05 12:21:16;;;;;;;12.02;3.38;;;;;;;;;;10194450;28;20397;-74
2024/02/05 12:26:19;;;;;;;12.60;3.20;;;;;;;;;;10190884;29;20052;-74
2024/02/05 12:31:23;;;;;;;4.68;2.20;;;;;;;;;;10194158;28;20388;-74
2024/02/05 12:36:29;;;;;;;7.75;2.83;;;;;;;;;;10203240;29;20058;-74
2024/02/05 12:41:34;;;;;;;5.35;2.40;;;;;;;;;;10196459;28;20047;-74
2024/02/05 12:46:37;;;;;;;11.57;3.45;;;;;;;;;;10194999;29;20593;-74
2024/02/05 12:51:42;;;;;;;12.48;3.13;;;;;;;;;;10197562;28;20503;-74
2024/02/05 12:56:46;;;;;;;11.13;3.42;;;;;;;;;;10196127;29;20408;-74
2024/02/05 13:01:54;;;;;;;10.95;3.13;;;;;;;;;;10191411;29;20710;-74
2024/02/05 13:07:04;;;;;;;11.90;3.65;;;;;;;;;;10197958;28;20106;-74
2024/02/05 13:12:09;;;;;;;10.93;3.42;;;;;;;;;;10193305;29;20086;-74
2024/02/05 13:17:13;;;;;;;11.18;3.22;;;;;;;;;;10191210;29;20488;-74
2024/02/05 13:22:18;;;;;;;11.10;3.28;;;;;;;;;;10195027;29;20051;-74
2024/02/05 13:27:21;;;;;;;13.50;3.08;;;;;;;;;;10215750;28;20443;-74
2024/02/05 13:32:24;;;;;;;15.27;2.97;;;;;;;;;;10196647;28;20058;-74
2024/02/05 13:37:29;;;;;;;12.35;3.17;;;;;;;;;;10199277;28;20044;-74
2024/02/05 13:42:38;;;;;;;15.77;3.65;;;;;;;;;;10198453;29;20136;-74
2024/02/05 13:47:43;;;;;;;14.50;3.10;;;;;;;;;;10219797;28;20171;-74
2024/02/05 13:52:48;;;;;;;8.85;2.53;;;;;;;;;;10206807;29;20063;-74
2024/02/05 13:57:51;;;;;;;10.13;3.13;;;;;;;;;;10198347;29;20135;-74
2024/02/05 14:02:54;;;;;;;11.15;3.08;;;;;;;;;;10198709;28;20289;-74
2024/02/05 14:07:59;;;;;;;13.30;3.28;;;;;;;;;;10207124;28;20060;-74
2024/02/05 14:13:02;;;;;;;11.40;2.95;;;;;;;;;;10199674;28;20499;-74
2024/02/05 14:18:06;;;;;;;14.10;3.50;;;;;;;;;;10200836;29;20147;-74
2024/02/05 14:23:11;;;;;;;10.93;3.28;;;;;;;;;;10200277;28;20142;-74
2024/02/05 14:28:14;;;;;;;14.07;2.80;;;;;;;;;;10199674;29;20055;-74
2024/02/05 14:33:18;;;;;;;10.60;2.55;;;;;;;;;;10205848;29;20055;-74
2024/02/05 14:38:22;;;;;;;10.93;3.05;;;;;;;;;;10200094;28;20082;-74
2024/02/05 14:43:25;;;;;;;9.55;3.17;;;;;;;;;;10204811;28;20043;-74
2024/02/05 14:48:29;;;;;;;12.35;3.13;;;;;;;;;;10204032;28;20573;-74
2024/02/05 14:53:33;;;;;;;8.50;2.75;;;;;;;;;;10204739;28;20172;-74
2024/02/05 14:58:37;;;;;;;7.57;2.70;;;;;;;;;;10202645;28;20075;-74
2024/02/05 15:03:41;;;;;;;14.55;3.03;;;;;;;;;;10202931;28;20512;-74
2024/02/05 15:08:46;;;;;;;6.32;2.70;;;;;;;;;;10204215;28;20519;-74
2024/02/05 15:13:50;;;;;;;7.47;2.78;;;;;;;;;;10202826;28;20467;-74
2024/02/05 15:18:53;;;;;;;9.75;3.53;;;;;;;;;;10202969;28;20155;-74
2024/02/05 15:23:57;;;;;;;11.13;2.38;;;;;;;;;;10202530;28;20508;-74
2024/02/05 15:29:01;;;;;;;9.68;2.08;;;;;;;;;;10201022;28;20056;-74
2024/02/05 15:34:04;;;;;;;10.05;2.50;;;;;;;;;;10200328;28;20050;-74
2024/02/05 15:39:11;;;;;;;8.80;2.97;;;;;;;;;;10203027;28;20064;-74
2024/02/05 15:44:14;;;;;;;11.40;3.55;;;;;;;;;;10193603;29;20055;-74
2024/02/05 15:49:18;;;;;;;5.70;2.42;;;;;;;;;;10195663;29;20632;-74
2024/02/05 15:54:22;;;;;;;9.75;2.72;;;;;;;;;;10197980;28;20123;-74
2024/02/05 15:59:26;;;;;;;7.38;2.60;;;;;;;;;;10194313;28;20044;-74
2024/02/05 16:04:29;;;;;;;13.88;2.90;;;;;;;;;;10199058;29;20047;-74
2024/02/05 16:09:34;;;;;;;12.07;2.92;;;;;;;;;;10200102;28;20058;-74
2024/02/05 16:14:38;;;;;;;9.07;3.10;;;;;;;;;;10196825;28;20901;-74
2024/02/05 16:19:41;;;;;;;12.85;2.80;;;;;;;;;;10203281;28;20078;-74
2024/02/05 16:24:46;;;;;;;12.48;3.60;;;;;;;;;;10197959;28;20043;-74
2024/02/05 16:29:49;;;;;;;14.50;2.97;;;;;;;;;;10193711;28;20579;-74
2024/02/05 16:34:52;;;;;;;10.05;3.10;;;;;;;;;;10200319;28;20048;-74
2024/02/05 16:39:57;;;;;;;9.40;3.20;;;;;;;;;;10192519;29;20056;-74
2024/02/05 16:45:01;;;;;;;9.50;3.33;;;;;;;;;;10196794;28;20139;-74
2024/02/05 16:50:05;;;;;;;12.95;3.03;;;;;;;;;;10190438;28;20071;-74
2024/02/05 16:55:10;;;;;;;9.45;3.05;;;;;;;;;;10198019;29;20047;-74
2024/02/05 17:00:14;;;;;;;7.90;3.20;;;;;;;;;;10195467;29;20052;-74
2024/02/05 17:05:17;;;;;;;14.50;3.55;;;;;;;;;;10194660;29;20078;-74
2024/02/05 17:10:22;;;;;;;8.68;2.80;;;;;;;;;;10231019;23;20114;-74
2024/02/05 17:15:25;;;;;;;7.47;2.38;;;;;;;;;;10234544;28;20047;-74
2024/02/05 17:20:29;;;;;;;8.82;2.92;;;;;;;;;;10213794;28;20056;-74
2024/02/05 17:25:34;;;;;;;4.93;2.25;;;;;;;;;;10193565;29;20513;-74
2024/02/05 17:30:37;;;;;;;8.95;2.80;;;;;;;;;;10197211;28;20834;-74
2024/02/05 17:35:41;;;;;;;6.10;2.63;;;;;;;;;;10195732;29;20048;-74
2024/02/05 17:40:47;;;;;;;7.07;2.75;;;;;;;;;;10198028;28;20051;-74
2024/02/05 17:45:51;;;;;;;8.65;2.58;;;;;;;;;;10195525;28;20480;-74
2024/02/05 17:50:54;;;;;;;13.38;4.05;;;;;;;;;;10191717;29;20059;-74
2024/02/05 17:56:00;;;;;;;10.73;3.45;;;;;;;;;;10201147;28;20131;-74
2024/02/05 18:01:03;;;;;;;8.38;2.88;;;;;;;;;;10196869;28;20047;-74
2024/02/05 18:06:07;;;;;;;5.95;2.35;;;;;;;;;;10191772;28;20059;-74
2024/02/05 18:11:12;;;;;;;5.45;2.30;;;;;;;;;;10197024;28;20048;-74
2024/02/05 18:16:16;;;;;;;12.45;3.25;;;;;;;;;;10196889;28;20047;-74
2024/02/05 18:21:20;;;;;;;11.85;3.30;;;;;;;;;;10195521;28;20063;-74
2024/02/05 18:26:25;;;;;;;13.60;3.03;;;;;;;;;;10198857;28;20044;-74
2024/02/05 18:31:28;;;;;;;9.35;3.33;;;;;;;;;;10203779;28;20788;-74
2024/02/05 18:36:32;;;;;;;6.03;2.80;;;;;;;;;;10204016;29;20134;-74
2024/02/05 18:41:37;;;;;;;14.07;4.55;;;;;;;;;;10201979;28;20044;-74
2024/02/05 18:46:40;;;;;;;12.25;4.18;;;;;;;;;;10201588;29;20108;-74
2024/02/05 18:51:43;;;;;;;18.38;4.75;;;;;;;;;;10204902;28;20143;-74
2024/02/05 18:57:40;;;;;;;14.95;4.43;;;;;;;;;;10199206;28;20142;-74
2024/02/05 19:02:46;;;;;;;15.07;5.05;;;;;;;;;;10199294;29;20363;-74
2024/02/05 19:07:49;;;;;;;9.32;4.22;;;;;;;;;;10203014;28;20474;-74
2024/02/05 19:12:55;;;;;;;10.63;4.22;;;;;;;;;;10202965;28;20048;-74
2024/02/05 19:17:58;;;;;;;13.68;5.13;;;;;;;;;;10203905;29;20051;-74
2024/02/05 19:23:25;;;;;;;8.75;4.28;;;;;;;;;;10206376;28;20827;-74
2024/02/05 19:29:21;;;;;;;10.23;4.45;;;;;;;;;;10192112;28;20059;-74
2024/02/05 19:34:39;;;;;;;18.77;5.60;;;;;;;;;;10201648;29;20059;-74
2024/02/05 19:39:43;;;;;;;14.07;5.32;;;;;;;;;;10202373;29;20492;-74
2024/02/05 19:44:46;;;;;;;8.35;4.32;;;;;;;;;;10202247;28;20044;-74
2024/02/05 19:49:51;;;;;;;15.13;5.57;;;;;;;;;;10201705;28;20058;-74
2024/02/05 19:54:54;;;;;;;13.40;5.07;;;;;;;;;;10199182;28;20550;-74
2024/02/05 19:59:57;;;;;;;19.13;6.50;;;;;;;;;;10204642;28;20059;-74
2024/02/05 20:05:02;;;;;;;16.98;5.43;;;;;;;;;;10200996;29;20419;-74
2024/02/05 20:10:06;;;;;;;9.68;4.20;;;;;;;;;;10204960;28;20131;-74
2024/02/05 20:15:10;;;;;;;15.18;6.40;;;;;;;;;;10201709;29;20056;-74
2024/02/05 20:20:14;;;;;;;14.40;5.97;;;;;;;;;;10195562;29;20040;-74
2024/02/05 20:25:18;;;;;;;16.20;5.95;;;;;;;;;;10198532;29;20677;-74
2024/02/05 20:30:21;;;;;;;15.55;6.28;;;;;;;;;;10195804;28;20209;-74
2024/02/05 20:35:26;;;;;;;12.57;4.90;;;;;;;;;;10200420;29;20047;-74
2024/02/05 20:40:30;;;;;;;17.42;6.30;;;;;;;;;;10198142;28;20131;-74
2024/02/05 20:45:34;;;;;;;17.52;6.35;;;;;;;;;;10198578;28;20056;-75
2024/02/05 20:50:38;;;;;;;17.02;6.90;;;;;;;;;;10195498;29;20047;-74
2024/02/05 20:55:42;;;;;;;21.23;6.30;;;;;;;;;;10200971;28;20051;-74
2024/02/05 21:00:48;;;;;;;15.68;5.75;;;;;;;;;;10199336;28;20051;-74
2024/02/05 21:05:53;;;;;;;14.00;5.72;;;;;;;;;;10201221;28;20056;-74
2024/02/05 21:10:56;;;;;;;17.38;6.55;;;;;;;;;;10204215;28;20051;-74
2024/02/05 21:16:00;;;;;;;12.93;5.65;;;;;;;;;;10205489;28;20074;-74
2024/02/05 21:21:04;;;;;;;18.85;7.00;;;;;;;;;;10198828;29;20052;-74
2024/02/05 21:26:08;;;;;;;16.00;5.68;;;;;;;;;;10199255;29;20062;-74
2024/02/05 21:31:11;;;;;;;16.80;6.53;;;;;;;;;;10197079;28;20056;-74
2024/02/05 21:36:39;;;;;;;11.50;4.55;;;;;;;;;;10197514;28;20095;-74
2024/02/05 21:41:46;;;;;;;18.35;7.32;;;;;;;;;;10190605;28;20079;-74
2024/02/05 21:47:15;;;;;;;14.88;5.10;;;;;;;;;;10187858;28;20127;-74
2024/02/05 21:58:42;;;;;;;14.32;6.53;;;;;;;;;;10581832;27;20415;-74
2024/02/05 22:03:46;;;;;;;;;;;;;;;;;;10537203;28;20089;-74
2024/02/05 22:08:49;;;;;;;11.60;4.95;;;;;;;;;;10528403;28;19931;-74
2024/02/05 22:13:54;;;;;;;18.83;5.85;;;;;;;;;;10527964;28;20078;-74
2024/02/05 22:18:58;;;;;;;15.45;6.22;;;;;;;;;;10530021;28;20136;-74
2024/02/05 22:24:02;;;;;;;21.88;7.03;;;;;;;;;;10523341;28;20045;-74
2024/02/05 22:29:08;;;;;;;17.00;5.82;;;;;;;;;;10519765;28;20134;-74
2024/02/05 22:34:12;;;;;;;18.73;6.03;;;;;;;;;;10519468;28;20044;-74
2024/02/05 22:39:17;;;;;;;18.13;6.40;;;;;;;;;;10510079;28;20044;-74
2024/02/05 22:44:23;;;;;;;14.60;5.85;;;;;;;;;;10514881;28;20037;-74
2024/02/05 22:49:26;;;;;;;18.05;6.25;;;;;;;;;;10518251;28;20040;-74
2024/02/05 22:54:30;;;;;;;19.25;6.70;;;;;;;;;;10542123;28;20580;-74
2024/02/05 22:59:34;;;;;;;20.40;6.25;;;;;;;;;;10534504;28;20040;-74
2024/02/05 23:04:37;;;;;;;16.98;6.68;;;;;;;;;;10533953;28;20049;-74
2024/02/05 23:09:42;;;;;;;19.60;7.10;;;;;;;;;;10541030;22;20579;-77
2024/02/05 23:14:47;;;;;;;18.70;7.60;;;;;;;;;;10466730;28;20126;-75
2024/02/05 23:19:50;;;;;;;13.90;5.70;;;;;;;;;;10459051;28;20057;-75
2024/02/05 23:24:53;;;;;;;14.38;6.57;;;;;;;;;;10461998;28;20041;-75
2024/02/05 23:29:58;;;;;;;22.15;7.65;;;;;;;;;;10458648;28;20037;-75
2024/02/05 23:35:04;;;;;;;17.52;7.70;;;;;;;;;;10453441;28;20064;-75
2024/02/05 23:40:08;;;;;;;22.65;8.27;;;;;;;;;;10468644;28;20056;-75
2024/02/05 23:45:13;;;;;;;23.88;8.85;;;;;;;;;;10459631;28;20042;-75
2024/02/05 23:50:17;;;;;;;25.88;8.38;;;;;;;;;;10454799;28;20056;-75
2024/02/05 23:55:20;;;;;;;21.98;8.70;;;;;;;;;;10454337;28;20064;-74
